Time;durP1;ratioP1;P1;durP2;ratioP2;P2;SDS_P1;SDS_P2;PMS_P1;PMS_P2;Temp;Humidity;BMP_temperature;BMP_pressure;BME280_temperature;BME280_humidity;BME280_pressure;Samples;Min_cycle;Max_cycle;Signal;HPM_P1;HPM_P2
2023/07/31 06:02:36;;;;;;;72.00;15.75;;;;;;;;;;4880958;29;20116;-91
2023/07/31 06:05:02;;;;;;;64.05;14.43;;;;;;;;;;4890498;29;20541;-91
2023/07/31 06:07:27;;;;;;;59.90;13.73;;;;;;;;;;4877908;29;20045;-90
2023/07/31 06:09:54;;;;;;;73.03;14.73;;;;;;;;;;4878556;29;20037;-92
2023/07/31 06:12:20;;;;;;;64.55;15.00;;;;;;;;;;4879199;29;20212;-91
2023/07/31 06:14:46;;;;;;;79.50;15.98;;;;;;;;;;4880293;29;20045;-93
2023/07/31 06:17:11;;;;;;;63.42;14.32;;;;;;;;;;4879918;29;20056;-90
2023/07/31 06:19:36;;;;;;;73.38;14.63;;;;;;;;;;4879913;29;20043;-91
2023/07/31 06:22:02;;;;;;;71.22;15.10;;;;;;;;;;4889170;29;20040;-92
2023/07/31 06:24:28;;;;;;;49.65;13.15;;;;;;;;;;4897439;29;20051;-89
2023/07/31 06:26:53;;;;;;;57.25;14.25;;;;;;;;;;4880855;29;20095;-92
2023/07/31 06:29:19;;;;;;;57.88;14.05;;;;;;;;;;4879144;29;20104;-91
2023/07/31 06:31:44;;;;;;;60.97;12.93;;;;;;;;;;4882593;29;20045;-89
2023/07/31 06:34:09;;;;;;;55.53;11.38;;;;;;;;;;4896479;29;20092;-91
2023/07/31 06:36:35;;;;;;;64.35;13.75;;;;;;;;;;4881300;29;20045;-92
2023/07/31 06:39:00;;;;;;;66.97;14.13;;;;;;;;;;4884707;29;20116;-92
2023/07/31 06:41:26;;;;;;;63.22;14.18;;;;;;;;;;4897806;29;20053;-91
2023/07/31 06:43:51;;;;;;;54.63;14.02;;;;;;;;;;4900006;29;20080;-91
2023/07/31 06:46:16;;;;;;;67.95;14.60;;;;;;;;;;4896890;29;20048;-91
2023/07/31 06:48:42;;;;;;;72.50;14.90;;;;;;;;;;4900442;29;20044;-90
2023/07/31 06:51:07;;;;;;;71.65;14.85;;;;;;;;;;4882247;29;20566;-89
2023/07/31 06:53:32;;;;;;;62.33;13.63;;;;;;;;;;4898341;29;20576;-90
2023/07/31 06:55:58;;;;;;;62.15;12.82;;;;;;;;;;4899626;29;20060;-89
2023/07/31 06:58:23;;;;;;;54.00;14.05;;;;;;;;;;4899579;29;20052;-91
2023/07/31 07:00:51;;;;;;;62.50;13.18;;;;;;;;;;4900457;29;20401;-93
2023/07/31 07:03:20;;;;;;;57.67;13.93;;;;;;;;;;4899821;29;20049;-89
2023/07/31 07:05:45;;;;;;;76.15;14.07;;;;;;;;;;4899848;29;20081;-91
2023/07/31 07:08:11;;;;;;;59.90;13.77;;;;;;;;;;4899313;29;20075;-90
2023/07/31 07:10:37;;;;;;;62.33;13.80;;;;;;;;;;4882417;29;20099;-89
2023/07/31 07:13:02;;;;;;;54.33;13.13;;;;;;;;;;4891882;29;20502;-90
2023/07/31 07:15:28;;;;;;;55.92;12.95;;;;;;;;;;4893578;29;20143;-90
2023/07/31 07:17:54;;;;;;;58.95;12.38;;;;;;;;;;4892131;29;20048;-92
2023/07/31 07:20:20;;;;;;;60.35;13.25;;;;;;;;;;4881738;29;20051;-90
2023/07/31 07:22:45;;;;;;;42.72;11.07;;;;;;;;;;4868143;29;20068;-91
2023/07/31 07:25:10;;;;;;;55.72;12.77;;;;;;;;;;4882104;29;20049;-91
2023/07/31 07:27:36;;;;;;;62.50;13.27;;;;;;;;;;4883096;29;20044;-93
2023/07/31 07:30:01;;;;;;;52.63;13.00;;;;;;;;;;4899811;29;20049;-92
2023/07/31 07:32:27;;;;;;;49.65;13.35;;;;;;;;;;4881855;29;20036;-92
2023/07/31 07:34:52;;;;;;;56.25;13.63;;;;;;;;;;4899195;29;20059;-91
2023/07/31 07:37:17;;;;;;;48.88;11.43;;;;;;;;;;4898064;29;20069;-90
2023/07/31 07:39:43;;;;;;;45.45;10.88;;;;;;;;;;4898548;29;20057;-90
2023/07/31 07:42:08;;;;;;;31.45;9.88;;;;;;;;;;4881443;29;20556;-87
2023/07/31 07:44:34;;;;;;;45.75;11.32;;;;;;;;;;4898314;29;20411;-90
2023/07/31 07:46:59;;;;;;;33.95;9.32;;;;;;;;;;4890162;29;20037;-90
2023/07/31 07:49:24;;;;;;;42.08;9.77;;;;;;;;;;4887233;29;20136;-90
2023/07/31 07:51:50;;;;;;;23.13;6.65;;;;;;;;;;4881808;29;20529;-91
2023/07/31 07:54:16;;;;;;;19.38;7.30;;;;;;;;;;4889836;29;20108;-90
2023/07/31 07:56:42;;;;;;;14.88;6.25;;;;;;;;;;4881360;29;20052;-89
2023/07/31 07:59:08;;;;;;;18.10;6.75;;;;;;;;;;4889563;29;20520;-89
2023/07/31 08:01:33;;;;;;;15.48;5.72;;;;;;;;;;4880765;29;20420;-88
2023/07/31 08:03:59;;;;;;;16.23;5.65;;;;;;;;;;4878445;29;20053;-87
2023/07/31 08:06:24;;;;;;;13.35;5.38;;;;;;;;;;4893732;29;20179;-85
2023/07/31 08:08:50;;;;;;;14.70;6.15;;;;;;;;;;4890088;29;20045;-91
2023/07/31 08:11:15;;;;;;;18.60;6.60;;;;;;;;;;4887094;29;20128;-89
2023/07/31 08:13:41;;;;;;;22.85;7.68;;;;;;;;;;4887358;29;20395;-90
2023/07/31 08:16:06;;;;;;;26.20;7.93;;;;;;;;;;4888422;29;20070;-88
2023/07/31 08:18:32;;;;;;;19.65;6.93;;;;;;;;;;4888325;29;20060;-90
2023/07/31 08:20:58;;;;;;;18.25;6.20;;;;;;;;;;4885721;29;20056;-88
2023/07/31 08:23:23;;;;;;;17.50;6.72;;;;;;;;;;4888245;29;22456;-88
2023/07/31 08:25:50;;;;;;;18.58;5.97;;;;;;;;;;4888011;29;20570;-86
2023/07/31 08:28:16;;;;;;;13.68;5.50;;;;;;;;;;4885899;29;20052;-92
2023/07/31 08:30:41;;;;;;;11.60;5.40;;;;;;;;;;4895580;29;20402;-91
2023/07/31 08:33:07;;;;;;;16.38;5.63;;;;;;;;;;4882067;29;20116;-91
2023/07/31 08:35:32;;;;;;;16.63;5.80;;;;;;;;;;4905409;29;20064;-88
2023/07/31 08:37:58;;;;;;;14.82;5.70;;;;;;;;;;4883639;29;20062;-90
2023/07/31 08:40:23;;;;;;;16.73;5.60;;;;;;;;;;4900585;29;20049;-91
2023/07/31 08:42:53;;;;;;;18.35;5.30;;;;;;;;;;4898599;29;20049;-91
2023/07/31 08:45:19;;;;;;;14.93;5.10;;;;;;;;;;4897581;29;20081;-88
2023/07/31 08:47:47;;;;;;;14.65;4.72;;;;;;;;;;4881912;29;20044;-90
2023/07/31 08:50:13;;;;;;;11.90;5.50;;;;;;;;;;4899674;29;20151;-89
2023/07/31 08:52:38;;;;;;;16.23;6.07;;;;;;;;;;4902823;29;20052;-91
2023/07/31 08:55:05;;;;;;;17.40;5.75;;;;;;;;;;4896454;29;20045;-93
2023/07/31 08:57:31;;;;;;;16.17;6.00;;;;;;;;;;4892237;29;20056;-90
2023/07/31 09:00:01;;;;;;;22.52;7.45;;;;;;;;;;4890072;29;20051;-90
2023/07/31 09:02:34;;;;;;;16.35;6.35;;;;;;;;;;4889729;29;20052;-89
2023/07/31 09:05:00;;;;;;;16.48;5.50;;;;;;;;;;4888245;29;20041;-88
2023/07/31 09:07:27;;;;;;;12.35;5.35;;;;;;;;;;4888035;29;20076;-88
2023/07/31 09:09:52;;;;;;;11.05;4.05;;;;;;;;;;4870391;29;20067;-88
2023/07/31 09:12:18;;;;;;;10.55;4.13;;;;;;;;;;4888063;29;20519;-89
2023/07/31 09:14:45;;;;;;;10.93;3.88;;;;;;;;;;4886955;29;20061;-89
2023/07/31 09:17:11;;;;;;;8.20;3.25;;;;;;;;;;4877936;29;20052;-88
2023/07/31 09:19:39;;;;;;;10.25;3.92;;;;;;;;;;4872422;29;20080;-91
2023/07/31 09:22:05;;;;;;;;;;;;;;;;;;4882609;29;20498;-90
2023/07/31 09:24:33;;;;;;;15.82;5.68;;;;;;;;;;4884544;29;19924;-92
2023/07/31 09:27:02;;;;;;;18.40;6.38;;;;;;;;;;4864744;29;20459;-92
2023/07/31 09:29:29;;;;;;;26.10;7.40;;;;;;;;;;4888657;29;20048;-95
2023/07/31 09:31:55;;;;;;;25.42;8.32;;;;;;;;;;4888484;29;20043;-88
2023/07/31 09:34:29;;;;;;;43.65;10.00;;;;;;;;;;4872115;29;20040;-90
2023/07/31 09:36:56;;;;;;;47.28;10.07;;;;;;;;;;4873692;29;20104;-88
2023/07/31 09:39:22;;;;;;;29.23;10.38;;;;;;;;;;4889652;29;20048;-89
2023/07/31 09:41:54;;;;;;;51.30;10.95;;;;;;;;;;4889764;29;20083;-92
2023/07/31 09:44:20;;;;;;;64.38;12.15;;;;;;;;;;4886245;29;20072;-91
2023/07/31 09:46:46;;;;;;;57.63;11.93;;;;;;;;;;4897871;29;20048;-92
2023/07/31 09:49:13;;;;;;;45.10;12.18;;;;;;;;;;4891787;29;20047;-91
2023/07/31 09:51:40;;;;;;;126.78;13.35;;;;;;;;;;4906981;29;20051;-90
2023/07/31 09:54:11;;;;;;;119.32;13.68;;;;;;;;;;4906275;29;20067;-88
2023/07/31 09:56:39;;;;;;;77.30;12.23;;;;;;;;;;4901924;29;20059;-88
2023/07/31 09:59:05;;;;;;;83.90;12.63;;;;;;;;;;4905111;29;20049;-87
2023/07/31 10:01:31;;;;;;;115.35;13.68;;;;;;;;;;4887003;29;20469;-86
2023/07/31 10:03:58;;;;;;;59.75;12.80;;;;;;;;;;4900170;29;20048;-88
2023/07/31 10:06:24;;;;;;;53.25;12.23;;;;;;;;;;4904311;29;20132;-92
2023/07/31 10:08:52;;;;;;;68.28;12.40;;;;;;;;;;4904730;29;20067;-89
2023/07/31 10:11:19;;;;;;;58.33;12.52;;;;;;;;;;4905219;29;20051;-90
2023/07/31 10:13:45;;;;;;;45.22;12.32;;;;;;;;;;4905544;29;20040;-90
2023/07/31 10:16:12;;;;;;;36.88;11.32;;;;;;;;;;4905331;29;20032;-87
2023/07/31 10:18:39;;;;;;;66.15;12.27;;;;;;;;;;4913337;29;20044;-85
2023/07/31 10:21:05;;;;;;;110.80;12.57;;;;;;;;;;4916250;29;20067;-85
2023/07/31 10:23:31;;;;;;;91.10;13.60;;;;;;;;;;4899855;29;20512;-87
2023/07/31 10:25:58;;;;;;;70.57;13.90;;;;;;;;;;4899942;29;20040;-88
2023/07/31 10:28:25;;;;;;;85.68;13.23;;;;;;;;;;4908374;29;20043;-88
2023/07/31 10:30:51;;;;;;;50.50;12.07;;;;;;;;;;4918862;29;20059;-90
2023/07/31 10:33:17;;;;;;;55.88;13.48;;;;;;;;;;4902090;29;20199;-87
2023/07/31 10:35:43;;;;;;;55.85;14.45;;;;;;;;;;4899511;29;20459;-86
2023/07/31 10:38:12;;;;;;;48.55;12.77;;;;;;;;;;4898591;29;20049;-86
2023/07/31 10:40:39;;;;;;;51.25;13.63;;;;;;;;;;4907794;29;20094;-87
2023/07/31 10:43:05;;;;;;;59.83;15.57;;;;;;;;;;4908498;29;20069;-86
2023/07/31 10:45:33;;;;;;;61.03;14.95;;;;;;;;;;4899966;29;20059;-88
2023/07/31 10:48:03;;;;;;;57.88;14.13;;;;;;;;;;4899677;29;20044;-89
2023/07/31 10:50:29;;;;;;;53.90;14.75;;;;;;;;;;4898916;29;20040;-88
2023/07/31 10:52:57;;;;;;;65.65;15.50;;;;;;;;;;4899207;29;20044;-88
2023/07/31 10:55:30;;;;;;;60.30;13.52;;;;;;;;;;4898531;29;20566;-87
2023/07/31 10:57:57;;;;;;;59.38;15.77;;;;;;;;;;4899234;29;20387;-88
2023/07/31 11:00:27;;;;;;;64.63;14.15;;;;;;;;;;4868328;29;20068;-88
2023/07/31 11:03:02;;;;;;;60.40;13.70;;;;;;;;;;4880681;29;20049;-88
2023/07/31 11:05:46;;;;;;;82.75;16.27;;;;;;;;;;4879853;29;20061;-89
2023/07/31 11:08:19;;;;;;;74.28;15.85;;;;;;;;;;4880036;29;20045;-88
2023/07/31 11:10:45;;;;;;;90.30;16.98;;;;;;;;;;4880005;29;20569;-88
2023/07/31 11:13:11;;;;;;;68.60;16.15;;;;;;;;;;4879619;29;20041;-88
2023/07/31 11:15:37;;;;;;;82.90;17.73;;;;;;;;;;4880405;29;20049;-89
2023/07/31 11:18:05;;;;;;;80.75;16.85;;;;;;;;;;4880256;29;20050;-89
2023/07/31 11:20:31;;;;;;;112.60;17.33;;;;;;;;;;4899069;29;20041;-88
2023/07/31 11:23:06;;;;;;;81.82;17.52;;;;;;;;;;4894192;29;20056;-86
2023/07/31 11:25:32;;;;;;;73.95;18.05;;;;;;;;;;4894570;29;20123;-87
2023/07/31 11:28:03;;;;;;;79.70;18.35;;;;;;;;;;4892119;29;20087;-87
2023/07/31 11:30:28;;;;;;;116.13;19.95;;;;;;;;;;4887617;29;20064;-87
2023/07/31 11:32:55;;;;;;;68.32;17.95;;;;;;;;;;4891717;29;20573;-87
2023/07/31 11:35:22;;;;;;;162.65;20.42;;;;;;;;;;4889423;29;20048;-86
2023/07/31 11:37:48;;;;;;;108.68;17.90;;;;;;;;;;4888813;29;20052;-89
2023/07/31 11:40:14;;;;;;;152.27;19.20;;;;;;;;;;4886971;29;20048;-87
2023/07/31 11:42:40;;;;;;;60.25;14.75;;;;;;;;;;4888707;29;20135;-83
2023/07/31 11:45:07;;;;;;;33.75;9.63;;;;;;;;;;4887791;29;20048;-84
2023/07/31 11:47:35;;;;;;;13.77;6.00;;;;;;;;;;4886997;29;20057;-85
2023/07/31 11:50:01;;;;;;;9.75;4.90;;;;;;;;;;4888726;29;20081;-86
2023/07/31 11:52:31;;;;;;;12.85;3.95;;;;;;;;;;4887572;29;20041;-83
2023/07/31 11:54:58;;;;;;;9.45;3.35;;;;;;;;;;4889021;29;20036;-85
2023/07/31 11:57:24;;;;;;;6.25;2.38;;;;;;;;;;4886953;29;20048;-85
2023/07/31 11:59:50;;;;;;;4.93;2.10;;;;;;;;;;4892170;29;20040;-84
2023/07/31 12:02:18;;;;;;;4.10;1.63;;;;;;;;;;4880265;29;20055;-83
2023/07/31 12:04:43;;;;;;;3.92;2.10;;;;;;;;;;4897812;29;20059;-86
2023/07/31 12:07:09;;;;;;;7.30;2.38;;;;;;;;;;4880402;29;20040;-84
2023/07/31 12:09:35;;;;;;;9.90;3.55;;;;;;;;;;4897694;29;20049;-84
2023/07/31 12:12:00;;;;;;;7.45;3.63;;;;;;;;;;4897295;29;20548;-83
2023/07/31 12:14:30;;;;;;;9.95;3.80;;;;;;;;;;4880322;29;20056;-83
2023/07/31 12:17:09;;;;;;;5.53;3.05;;;;;;;;;;4897383;29;20040;-84
2023/07/31 12:19:35;;;;;;;7.05;3.47;;;;;;;;;;4880343;29;20415;-84
2023/07/31 12:22:00;;;;;;;6.40;3.83;;;;;;;;;;4897133;29;20044;-84
2023/07/31 12:24:26;;;;;;;8.85;4.05;;;;;;;;;;4896651;29;20052;-84
2023/07/31 12:26:52;;;;;;;6.75;3.60;;;;;;;;;;4897589;29;20044;-85
2023/07/31 12:29:18;;;;;;;12.20;4.63;;;;;;;;;;4890548;29;20060;-86
2023/07/31 12:31:43;;;;;;;9.13;3.92;;;;;;;;;;4888555;29;20044;-83
2023/07/31 12:34:17;;;;;;;8.55;4.43;;;;;;;;;;4885589;29;20514;-85
2023/07/31 12:36:43;;;;;;;10.35;4.40;;;;;;;;;;4887111;29;20040;-85
2023/07/31 12:39:08;;;;;;;15.90;5.88;;;;;;;;;;4887552;29;20052;-85
2023/07/31 12:41:33;;;;;;;13.98;5.75;;;;;;;;;;4887913;29;20127;-83
2023/07/31 12:43:59;;;;;;;16.40;6.20;;;;;;;;;;4886302;29;20391;-85
2023/07/31 12:46:24;;;;;;;16.27;6.63;;;;;;;;;;4871697;29;20121;-83
2023/07/31 12:48:49;;;;;;;27.83;8.05;;;;;;;;;;4885823;29;20049;-84
2023/07/31 12:51:15;;;;;;;33.28;9.93;;;;;;;;;;4886886;29;20049;-84
2023/07/31 12:53:40;;;;;;;40.20;10.65;;;;;;;;;;4886680;29;20047;-85
2023/07/31 12:56:06;;;;;;;32.72;9.57;;;;;;;;;;4885575;29;20128;-84
2023/07/31 12:58:31;;;;;;;44.90;11.57;;;;;;;;;;4887477;29;20048;-88
2023/07/31 13:00:57;;;;;;;59.70;12.23;;;;;;;;;;4887451;29;20085;-88
2023/07/31 13:03:22;;;;;;;64.13;12.90;;;;;;;;;;4887402;29;20087;-87
2023/07/31 13:05:47;;;;;;;78.75;14.63;;;;;;;;;;4887503;29;20108;-86
2023/07/31 13:08:15;;;;;;;76.75;16.27;;;;;;;;;;4868776;29;20041;-86
2023/07/31 13:10:40;;;;;;;58.00;15.70;;;;;;;;;;4887266;29;20520;-84
2023/07/31 13:13:06;;;;;;;105.00;16.27;;;;;;;;;;4884092;29;20072;-85
2023/07/31 13:15:31;;;;;;;97.82;16.58;;;;;;;;;;4887597;29;20503;-88
2023/07/31 13:17:57;;;;;;;109.60;17.65;;;;;;;;;;4892965;29;20052;-88
2023/07/31 13:20:22;;;;;;;97.88;19.42;;;;;;;;;;4905983;29;20048;-90
2023/07/31 13:22:47;;;;;;;88.38;18.25;;;;;;;;;;4905691;29;20135;-88
2023/07/31 13:25:13;;;;;;;106.40;18.15;;;;;;;;;;4905663;29;20040;-90
2023/07/31 13:27:38;;;;;;;118.97;19.55;;;;;;;;;;4904501;29;20052;-89
2023/07/31 13:30:04;;;;;;;95.45;18.92;;;;;;;;;;4906637;29;20063;-89
2023/07/31 13:32:30;;;;;;;107.75;18.63;;;;;;;;;;4905404;29;20040;-88
2023/07/31 13:34:55;;;;;;;94.15;19.35;;;;;;;;;;4905966;29;20044;-89
2023/07/31 13:37:20;;;;;;;109.50;19.45;;;;;;;;;;4906219;29;20041;-90
2023/07/31 13:39:46;;;;;;;104.47;19.20;;;;;;;;;;4905134;29;20064;-87
2023/07/31 13:42:12;;;;;;;89.47;17.35;;;;;;;;;;4905808;29;20056;-88
2023/07/31 13:44:41;;;;;;;95.18;19.38;;;;;;;;;;4903972;29;20059;-88
2023/07/31 13:47:08;;;;;;;103.05;20.30;;;;;;;;;;4906923;29;20559;-88
2023/07/31 13:49:34;;;;;;;101.68;19.08;;;;;;;;;;4905443;29;20048;-88
2023/07/31 13:52:00;;;;;;;90.65;18.42;;;;;;;;;;4905438;29;20055;-88
2023/07/31 13:54:25;;;;;;;109.90;19.52;;;;;;;;;;4889330;29;20045;-88
2023/07/31 13:56:52;;;;;;;84.60;18.25;;;;;;;;;;4902472;29;20052;-87
2023/07/31 13:59:17;;;;;;;106.18;20.00;;;;;;;;;;4886494;29;20131;-87
2023/07/31 14:01:44;;;;;;;97.80;20.42;;;;;;;;;;4903682;29;20577;-86
2023/07/31 14:04:09;;;;;;;92.40;18.38;;;;;;;;;;4882392;29;20132;-88
2023/07/31 14:06:35;;;;;;;110.57;21.27;;;;;;;;;;4873216;29;20132;-91
2023/07/31 14:09:00;;;;;;;99.47;21.33;;;;;;;;;;4888066;29;20124;-88
2023/07/31 14:11:26;;;;;;;104.80;21.00;;;;;;;;;;4889854;29;20117;-89
2023/07/31 14:13:51;;;;;;;105.45;21.20;;;;;;;;;;4893178;29;20048;-91
2023/07/31 14:16:17;;;;;;;107.85;21.42;;;;;;;;;;4886213;29;20064;-91
2023/07/31 14:18:43;;;;;;;96.22;21.23;;;;;;;;;;4891276;29;20040;-88
2023/07/31 14:21:08;;;;;;;112.65;21.67;;;;;;;;;;4893233;29;20124;-90
2023/07/31 14:23:34;;;;;;;110.60;21.83;;;;;;;;;;4890848;29;20049;-88
2023/07/31 14:25:59;;;;;;;107.95;21.88;;;;;;;;;;4887636;29;20041;-89
2023/07/31 14:28:24;;;;;;;106.00;21.45;;;;;;;;;;4886195;29;20053;-91
2023/07/31 14:30:50;;;;;;;104.45;21.50;;;;;;;;;;4896457;29;20711;-90
2023/07/31 14:33:15;;;;;;;101.38;21.95;;;;;;;;;;4895796;29;20045;-90
2023/07/31 14:35:41;;;;;;;113.63;22.60;;;;;;;;;;4896891;29;20048;-90
2023/07/31 14:38:06;;;;;;;107.30;23.58;;;;;;;;;;4891256;29;20044;-89
2023/07/31 14:40:32;;;;;;;103.30;22.58;;;;;;;;;;4878267;29;20044;-92
2023/07/31 14:42:57;;;;;;;99.60;22.15;;;;;;;;;;4884008;29;20056;-93
2023/07/31 14:45:22;;;;;;;92.53;22.90;;;;;;;;;;4878718;29;20581;-88
2023/07/31 14:47:48;;;;;;;116.50;23.17;;;;;;;;;;4866021;29;20073;-89
2023/07/31 14:50:13;;;;;;;117.47;23.75;;;;;;;;;;4896156;29;20048;-88
2023/07/31 14:52:39;;;;;;;109.78;22.83;;;;;;;;;;4880366;29;20055;-89
2023/07/31 14:55:05;;;;;;;108.65;23.48;;;;;;;;;;4894046;29;20041;-89
2023/07/31 14:57:30;;;;;;;111.03;22.80;;;;;;;;;;4890783;29;20140;-88
2023/07/31 14:59:56;;;;;;;110.68;23.63;;;;;;;;;;4887345;29;20135;-87
2023/07/31 15:02:21;;;;;;;99.82;21.77;;;;;;;;;;4869991;29;20060;-89
2023/07/31 15:04:46;;;;;;;113.85;23.45;;;;;;;;;;4881964;29;20041;-88
2023/07/31 15:07:13;;;;;;;110.38;23.13;;;;;;;;;;4887401;29;20488;-90
2023/07/31 15:09:39;;;;;;;115.30;23.13;;;;;;;;;;4893816;29;20049;-88
2023/07/31 15:12:05;;;;;;;115.80;23.55;;;;;;;;;;4890953;29;20414;-87
2023/07/31 15:14:31;;;;;;;110.80;23.88;;;;;;;;;;4894202;29;20068;-89
2023/07/31 15:16:57;;;;;;;99.88;21.92;;;;;;;;;;4892533;29;20048;-89
2023/07/31 15:19:23;;;;;;;100.95;23.05;;;;;;;;;;4884133;29;20068;-86
2023/07/31 15:21:49;;;;;;;91.45;21.10;;;;;;;;;;4891238;29;20056;-86
2023/07/31 15:24:14;;;;;;;103.68;21.42;;;;;;;;;;4890770;29;20390;-85
2023/07/31 15:26:42;;;;;;;82.88;20.20;;;;;;;;;;4889740;29;20147;-84
2023/07/31 15:29:15;;;;;;;83.50;18.70;;;;;;;;;;4873400;29;20461;-82
2023/07/31 15:31:41;;;;;;;75.45;17.20;;;;;;;;;;4889948;29;20108;-83
2023/07/31 15:34:07;;;;;;;63.58;16.42;;;;;;;;;;4883492;29;20141;-84
2023/07/31 15:36:33;;;;;;;81.75;18.05;;;;;;;;;;4872479;29;20059;-84
2023/07/31 15:38:58;;;;;;;91.65;19.58;;;;;;;;;;4891299;29;20507;-85
2023/07/31 15:41:25;;;;;;;76.53;18.63;;;;;;;;;;4882648;29;20128;-86
2023/07/31 15:43:50;;;;;;;89.97;18.70;;;;;;;;;;4882133;29;20053;-86
2023/07/31 15:46:17;;;;;;;93.10;20.08;;;;;;;;;;4883404;29;20179;-85
2023/07/31 15:48:42;;;;;;;82.55;19.92;;;;;;;;;;4888506;29;20045;-83
2023/07/31 15:51:08;;;;;;;72.32;17.50;;;;;;;;;;4887744;29;20108;-85
2023/07/31 15:53:33;;;;;;;80.72;18.00;;;;;;;;;;4890570;29;20123;-87
2023/07/31 15:55:58;;;;;;;57.28;15.35;;;;;;;;;;4890726;29;20602;-87
2023/07/31 15:58:24;;;;;;;61.15;14.52;;;;;;;;;;4890592;29;20059;-86
2023/07/31 16:00:49;;;;;;;49.13;13.48;;;;;;;;;;4873396;29;20057;-85
2023/07/31 16:03:15;;;;;;;64.95;16.25;;;;;;;;;;4872896;29;20041;-81
2023/07/31 16:05:40;;;;;;;87.63;18.27;;;;;;;;;;4890534;29;20546;-83
2023/07/31 16:08:07;;;;;;;83.80;17.33;;;;;;;;;;4869679;29;20049;-84
2023/07/31 16:10:32;;;;;;;79.20;18.20;;;;;;;;;;4889212;29;20235;-84
2023/07/31 16:12:58;;;;;;;74.40;17.00;;;;;;;;;;4882591;29;20084;-85
2023/07/31 16:15:23;;;;;;;97.05;17.83;;;;;;;;;;4885195;29;20087;-85
2023/07/31 16:17:48;;;;;;;91.95;19.80;;;;;;;;;;4878827;29;20049;-86
2023/07/31 16:20:14;;;;;;;97.32;19.65;;;;;;;;;;4888225;29;20091;-86
2023/07/31 16:22:39;;;;;;;105.55;20.17;;;;;;;;;;4888319;29;20048;-85
2023/07/31 16:25:05;;;;;;;103.97;20.08;;;;;;;;;;4890520;29;20048;-87
2023/07/31 16:27:30;;;;;;;88.72;18.00;;;;;;;;;;4887336;29;20049;-90
2023/07/31 16:29:59;;;;;;;90.13;20.63;;;;;;;;;;4871791;29;20072;-92
2023/07/31 16:32:26;;;;;;;72.25;15.75;;;;;;;;;;4883125;29;20045;-85
2023/07/31 16:34:51;;;;;;;68.25;14.55;;;;;;;;;;4872458;29;20052;-88
2023/07/31 16:37:17;;;;;;;66.60;16.52;;;;;;;;;;4886897;29;20052;-89
2023/07/31 16:39:46;;;;;;;81.97;17.85;;;;;;;;;;4882668;29;20426;-87
2023/07/31 16:42:12;;;;;;;88.25;17.55;;;;;;;;;;4889126;29;20048;-88
2023/07/31 16:44:37;;;;;;;79.15;17.30;;;;;;;;;;4887462;29;20055;-87
2023/07/31 16:47:02;;;;;;;81.07;17.33;;;;;;;;;;4890622;29;20645;-88
2023/07/31 16:49:28;;;;;;;70.95;17.63;;;;;;;;;;4889017;29;20048;-89
2023/07/31 16:51:53;;;;;;;51.55;14.45;;;;;;;;;;4883890;29;20119;-89
2023/07/31 16:54:18;;;;;;;63.30;14.80;;;;;;;;;;4889117;29;20053;-87
2023/07/31 16:56:44;;;;;;;54.08;13.30;;;;;;;;;;4882958;29;20187;-85
2023/07/31 16:59:09;;;;;;;62.53;14.60;;;;;;;;;;4887914;29;20469;-85
2023/07/31 17:01:34;;;;;;;63.20;14.20;;;;;;;;;;4882619;29;20159;-85
2023/07/31 17:04:00;;;;;;;43.63;11.60;;;;;;;;;;4881903;29;20597;-86
2023/07/31 17:06:28;;;;;;;42.38;11.98;;;;;;;;;;4881394;29;20041;-86
2023/07/31 17:08:54;;;;;;;32.28;9.57;;;;;;;;;;4877759;29;20553;-85
2023/07/31 17:11:20;;;;;;;23.33;8.73;;;;;;;;;;4889224;29;20148;-86
2023/07/31 17:13:46;;;;;;;18.02;5.43;;;;;;;;;;4883690;29;20336;-86
2023/07/31 17:16:11;;;;;;;19.40;6.28;;;;;;;;;;4878504;29;20048;-84
2023/07/31 17:18:36;;;;;;;18.40;5.00;;;;;;;;;;4889228;29;20069;-83
2023/07/31 17:21:02;;;;;;;8.75;4.47;;;;;;;;;;4887338;29;20040;-83
2023/07/31 17:23:27;;;;;;;10.10;3.65;;;;;;;;;;4885974;29;20047;-84
2023/07/31 17:25:52;;;;;;;10.45;3.42;;;;;;;;;;4888255;29;20667;-86
2023/07/31 17:28:18;;;;;;;11.75;4.07;;;;;;;;;;4887680;29;20478;-83
2023/07/31 17:30:43;;;;;;;12.27;3.97;;;;;;;;;;4883446;29;20051;-84
2023/07/31 17:33:09;;;;;;;11.45;4.95;;;;;;;;;;4887923;29;20081;-84
2023/07/31 17:35:34;;;;;;;9.70;3.78;;;;;;;;;;4877130;29;20107;-85
2023/07/31 17:37:59;;;;;;;7.45;3.58;;;;;;;;;;4888500;29;20682;-84
2023/07/31 17:40:25;;;;;;;10.50;4.20;;;;;;;;;;4883539;29;20276;-85
2023/07/31 17:42:50;;;;;;;12.50;4.65;;;;;;;;;;4879284;29;20092;-85
2023/07/31 17:45:17;;;;;;;10.85;4.43;;;;;;;;;;4886772;29;20052;-86
2023/07/31 17:47:43;;;;;;;17.95;4.55;;;;;;;;;;4889076;29;20040;-86
2023/07/31 17:50:09;;;;;;;16.95;6.07;;;;;;;;;;4871719;29;20067;-86
2023/07/31 17:52:35;;;;;;;23.08;7.25;;;;;;;;;;4888937;29;20506;-85
2023/07/31 17:55:01;;;;;;;20.58;7.57;;;;;;;;;;4885409;29;20527;-87
2023/07/31 17:57:26;;;;;;;30.50;8.75;;;;;;;;;;4888110;29;20506;-85
2023/07/31 17:59:52;;;;;;;33.22;9.77;;;;;;;;;;4886288;29;20048;-87
2023/07/31 18:02:18;;;;;;;34.78;9.30;;;;;;;;;;4886613;29;20057;-85
2023/07/31 18:04:43;;;;;;;36.92;9.60;;;;;;;;;;4888524;29;20718;-86
2023/07/31 18:07:09;;;;;;;42.70;9.63;;;;;;;;;;4868714;29;20136;-89
2023/07/31 18:09:34;;;;;;;69.13;10.40;;;;;;;;;;4879793;29;20528;-86
2023/07/31 18:12:00;;;;;;;41.33;9.70;;;;;;;;;;4887934;29;20582;-87
2023/07/31 18:14:27;;;;;;;35.42;8.57;;;;;;;;;;4888803;29;20060;-87
2023/07/31 18:16:53;;;;;;;35.70;8.37;;;;;;;;;;4884888;29;20044;-88
2023/07/31 18:19:18;;;;;;;32.75;7.72;;;;;;;;;;4888413;29;20045;-88
2023/07/31 18:21:44;;;;;;;19.90;7.80;;;;;;;;;;4886825;29;20041;-88
2023/07/31 18:24:09;;;;;;;23.80;7.13;;;;;;;;;;4888008;29;20593;-87
2023/07/31 18:26:36;;;;;;;23.00;6.82;;;;;;;;;;4880128;29;20052;-88
2023/07/31 18:29:01;;;;;;;24.65;6.78;;;;;;;;;;4887161;29;20124;-87
2023/07/31 18:31:27;;;;;;;23.25;6.85;;;;;;;;;;4881983;29;20064;-89
2023/07/31 18:33:52;;;;;;;23.30;6.57;;;;;;;;;;4875468;29;20049;-89
2023/07/31 18:36:18;;;;;;;23.73;6.97;;;;;;;;;;4883461;29;20052;-87
2023/07/31 18:38:43;;;;;;;16.30;5.40;;;;;;;;;;4890871;29;20044;-86
2023/07/31 18:41:09;;;;;;;13.02;5.32;;;;;;;;;;4871273;29;20045;-86
2023/07/31 18:43:34;;;;;;;14.35;5.50;;;;;;;;;;4889301;29;20049;-85
2023/07/31 18:46:00;;;;;;;11.63;4.25;;;;;;;;;;4890279;29;20056;-86
2023/07/31 18:48:25;;;;;;;12.50;5.28;;;;;;;;;;4891716;29;20054;-87
2023/07/31 18:50:51;;;;;;;12.68;5.35;;;;;;;;;;4892126;29;20075;-86
2023/07/31 18:53:18;;;;;;;12.10;5.10;;;;;;;;;;4870983;29;20108;-85
2023/07/31 18:55:44;;;;;;;10.60;4.43;;;;;;;;;;4884469;29;20131;-86
2023/07/31 18:58:09;;;;;;;9.15;4.65;;;;;;;;;;4874208;29;20048;-86
2023/07/31 19:00:35;;;;;;;11.65;4.28;;;;;;;;;;4881482;29;20052;-86
2023/07/31 19:03:00;;;;;;;13.32;4.38;;;;;;;;;;4891785;29;20044;-87
2023/07/31 19:05:25;;;;;;;10.30;4.20;;;;;;;;;;4889632;29;20489;-85
2023/07/31 19:07:51;;;;;;;10.63;3.97;;;;;;;;;;4889789;29;20041;-85
2023/07/31 19:10:16;;;;;;;7.40;3.60;;;;;;;;;;4885185;29;20036;-86
2023/07/31 19:12:42;;;;;;;10.20;3.60;;;;;;;;;;4886480;29;20049;-86
2023/07/31 19:15:10;;;;;;;11.35;3.65;;;;;;;;;;4884520;29;20071;-85
2023/07/31 19:17:37;;;;;;;9.50;4.10;;;;;;;;;;4887952;29;20052;-86
2023/07/31 19:20:05;;;;;;;10.70;4.10;;;;;;;;;;4884927;29;20068;-84
2023/07/31 19:22:31;;;;;;;9.35;4.00;;;;;;;;;;4891672;29;20789;-87
2023/07/31 19:24:57;;;;;;;6.70;3.53;;;;;;;;;;4891826;29;20124;-85
2023/07/31 19:27:22;;;;;;;8.00;3.25;;;;;;;;;;4889162;29;20399;-87
2023/07/31 19:29:47;;;;;;;10.57;3.42;;;;;;;;;;4890345;29;20057;-86
2023/07/31 19:32:14;;;;;;;8.73;3.85;;;;;;;;;;4890931;29;20582;-86
2023/07/31 19:34:40;;;;;;;11.63;4.00;;;;;;;;;;4887446;29;20151;-85
2023/07/31 19:37:05;;;;;;;7.70;3.72;;;;;;;;;;4873232;29;20181;-86
2023/07/31 19:39:31;;;;;;;8.52;3.53;;;;;;;;;;4873961;29;20091;-85
2023/07/31 19:41:56;;;;;;;10.18;3.67;;;;;;;;;;4881193;29;20533;-85
2023/07/31 19:44:22;;;;;;;7.78;3.00;;;;;;;;;;4888317;29;20055;-85
2023/07/31 19:46:48;;;;;;;9.27;3.38;;;;;;;;;;4891368;29;20056;-86
2023/07/31 19:49:13;;;;;;;8.98;3.20;;;;;;;;;;4872723;29;20051;-86
2023/07/31 19:51:38;;;;;;;6.15;2.55;;;;;;;;;;4890637;29;20048;-86
2023/07/31 19:54:04;;;;;;;8.38;2.83;;;;;;;;;;4890020;29;20540;-86
2023/07/31 19:56:29;;;;;;;6.28;2.35;;;;;;;;;;4889360;29;20196;-84
2023/07/31 19:58:55;;;;;;;8.27;2.50;;;;;;;;;;4883833;29;20422;-84
2023/07/31 20:01:20;;;;;;;4.22;2.17;;;;;;;;;;4880544;29;20101;-84
2023/07/31 20:03:46;;;;;;;4.70;2.20;;;;;;;;;;4889204;29;20072;-88
2023/07/31 20:06:11;;;;;;;7.35;2.40;;;;;;;;;;4877668;29;20059;-84
2023/07/31 20:08:36;;;;;;;3.75;1.98;;;;;;;;;;4889490;29;20068;-84
2023/07/31 20:11:02;;;;;;;4.18;2.05;;;;;;;;;;4875586;29;20048;-86
2023/07/31 20:13:30;;;;;;;7.82;2.40;;;;;;;;;;4882363;29;20055;-85
2023/07/31 20:15:56;;;;;;;7.47;1.80;;;;;;;;;;4884331;29;20509;-86
2023/07/31 20:18:21;;;;;;;6.97;2.05;;;;;;;;;;4881057;29;20117;-87